sensor_id;sensor_type;location;lat;lon;timestamp;temperature;humidity
5492;DHT22;2768;53.540;10.224;2023-06-10T00:05:51;18.30;86.00
5492;DHT22;2768;53.540;10.224;2023-06-10T00:11:44;18.20;77.00
5492;DHT22;2768;53.540;10.224;2023-06-10T00:17:38;18.00;85.80
5492;DHT22;2768;53.540;10.224;2023-06-10T00:23:34;17.70;89.60
5492;DHT22;2768;53.540;10.224;2023-06-10T00:29:29;17.90;86.20
5492;DHT22;2768;53.540;10.224;2023-06-10T00:35:23;17.70;88.00
5492;DHT22;2768;53.540;10.224;2023-06-10T00:41:18;18.10;67.80
5492;DHT22;2768;53.540;10.224;2023-06-10T00:47:12;17.80;65.70
5492;DHT22;2768;53.540;10.224;2023-06-10T00:53:06;17.70;59.30
5492;DHT22;2768;53.540;10.224;2023-06-10T00:59:02;18.10;41.90
5492;DHT22;2768;53.540;10.224;2023-06-10T01:04:55;17.70;41.10
5492;DHT22;2768;53.540;10.224;2023-06-10T01:10:51;17.40;46.90
5492;DHT22;2768;53.540;10.224;2023-06-10T01:16:48;17.40;44.50
5492;DHT22;2768;53.540;10.224;2023-06-10T01:22:43;17.50;36.60
5492;DHT22;2768;53.540;10.224;2023-06-10T01:28:40;17.20;41.10
5492;DHT22;2768;53.540;10.224;2023-06-10T01:34:39;17.10;45.80
5492;DHT22;2768;53.540;10.224;2023-06-10T01:40:35;17.10;49.00
5492;DHT22;2768;53.540;10.224;2023-06-10T01:46:28;16.80;55.40
5492;DHT22;2768;53.540;10.224;2023-06-10T01:52:22;17.30;39.80
5492;DHT22;2768;53.540;10.224;2023-06-10T01:58:17;17.00;30.60
5492;DHT22;2768;53.540;10.224;2023-06-10T02:04:10;16.60;52.70
5492;DHT22;2768;53.540;10.224;2023-06-10T02:10:04;16.40;54.20
5492;DHT22;2768;53.540;10.224;2023-06-10T02:15:59;16.60;64.60
5492;DHT22;2768;53.540;10.224;2023-06-10T02:21:53;16.90;50.80
5492;DHT22;2768;53.540;10.224;2023-06-10T02:27:47;16.70;48.20
5492;DHT22;2768;53.540;10.224;2023-06-10T02:33:42;16.60;50.00
5492;DHT22;2768;53.540;10.224;2023-06-10T02:39:36;16.60;49.60
5492;DHT22;2768;53.540;10.224;2023-06-10T02:45:34;16.60;50.90
5492;DHT22;2768;53.540;10.224;2023-06-10T02:51:30;16.70;37.50
5492;DHT22;2768;53.540;10.224;2023-06-10T02:57:26;16.40;46.80
5492;DHT22;2768;53.540;10.224;2023-06-10T03:03:20;16.50;51.10
5492;DHT22;2768;53.540;10.224;2023-06-10T03:09:24;16.40;49.40
5492;DHT22;2768;53.540;10.224;2023-06-10T03:15:22;16.30;60.00
5492;DHT22;2768;53.540;10.224;2023-06-10T03:21:17;16.40;52.00
5492;DHT22;2768;53.540;10.224;2023-06-10T03:27:12;16.40;54.40
5492;DHT22;2768;53.540;10.224;2023-06-10T03:33:09;16.30;55.30
5492;DHT22;2768;53.540;10.224;2023-06-10T03:39:04;16.30;62.20
5492;DHT22;2768;53.540;10.224;2023-06-10T03:44:59;16.30;57.30
5492;DHT22;2768;53.540;10.224;2023-06-10T03:50:55;16.30;62.40
5492;DHT22;2768;53.540;10.224;2023-06-10T03:56:49;16.60;52.20
5492;DHT22;2768;53.540;10.224;2023-06-10T04:02:44;17.00;29.90
5492;DHT22;2768;53.540;10.224;2023-06-10T04:08:52;16.60;39.00
5492;DHT22;2768;53.540;10.224;2023-06-10T04:14:45;16.50;55.40
5492;DHT22;2768;53.540;10.224;2023-06-10T04:20:41;16.30;64.40
5492;DHT22;2768;53.540;10.224;2023-06-10T04:26:35;16.70;57.10
5492;DHT22;2768;53.540;10.224;2023-06-10T04:32:29;16.70;56.60
5492;DHT22;2768;53.540;10.224;2023-06-10T04:38:24;16.60;63.30
5492;DHT22;2768;53.540;10.224;2023-06-10T04:44:17;16.80;59.90
5492;DHT22;2768;53.540;10.224;2023-06-10T04:50:12;16.80;61.20
5492;DHT22;2768;53.540;10.224;2023-06-10T04:56:07;17.00;60.20
5492;DHT22;2768;53.540;10.224;2023-06-10T05:02:01;17.10;52.80
5492;DHT22;2768;53.540;10.224;2023-06-10T05:07:54;17.00;57.70
5492;DHT22;2768;53.540;10.224;2023-06-10T05:13:49;17.30;54.80
5492;DHT22;2768;53.540;10.224;2023-06-10T05:19:42;17.30;51.00
5492;DHT22;2768;53.540;10.224;2023-06-10T05:25:36;17.30;53.40
5492;DHT22;2768;53.540;10.224;2023-06-10T05:31:31;17.50;50.60
5492;DHT22;2768;53.540;10.224;2023-06-10T05:37:25;17.70;47.30
5492;DHT22;2768;53.540;10.224;2023-06-10T05:43:18;17.70;44.80
5492;DHT22;2768;53.540;10.224;2023-06-10T05:49:13;17.60;50.70
5492;DHT22;2768;53.540;10.224;2023-06-10T05:55:07;17.70;50.70
5492;DHT22;2768;53.540;10.224;2023-06-10T06:01:01;17.70;53.90
5492;DHT22;2768;53.540;10.224;2023-06-10T06:06:56;17.80;48.80
5492;DHT22;2768;53.540;10.224;2023-06-10T06:12:49;17.90;50.70
5492;DHT22;2768;53.540;10.224;2023-06-10T06:18:43;18.10;45.50
5492;DHT22;2768;53.540;10.224;2023-06-10T06:24:37;18.00;51.10
5492;DHT22;2768;53.540;10.224;2023-06-10T06:30:31;18.10;53.80
5492;DHT22;2768;53.540;10.224;2023-06-10T06:36:24;18.20;49.10
5492;DHT22;2768;53.540;10.224;2023-06-10T06:42:19;18.30;49.40
5492;DHT22;2768;53.540;10.224;2023-06-10T06:48:35;18.40;51.80
5492;DHT22;2768;53.540;10.224;2023-06-10T06:54:30;18.50;53.60
5492;DHT22;2768;53.540;10.224;2023-06-10T07:00:24;18.50;51.00
5492;DHT22;2768;53.540;10.224;2023-06-10T07:06:18;18.70;49.80
5492;DHT22;2768;53.540;10.224;2023-06-10T07:12:12;18.70;53.10
5492;DHT22;2768;53.540;10.224;2023-06-10T07:18:06;18.70;51.00
5492;DHT22;2768;53.540;10.224;2023-06-10T07:24:00;18.70;52.30
5492;DHT22;2768;53.540;10.224;2023-06-10T07:29:53;18.90;58.10
5492;DHT22;2768;53.540;10.224;2023-06-10T07:35:48;19.00;57.30
5492;DHT22;2768;53.540;10.224;2023-06-10T07:41:41;19.20;50.60
5492;DHT22;2768;53.540;10.224;2023-06-10T07:47:35;19.40;48.70
5492;DHT22;2768;53.540;10.224;2023-06-10T07:53:29;19.50;42.00
5492;DHT22;2768;53.540;10.224;2023-06-10T07:59:23;19.40;43.70
5492;DHT22;2768;53.540;10.224;2023-06-10T08:05:17;19.60;42.60
5492;DHT22;2768;53.540;10.224;2023-06-10T08:11:13;19.70;42.40
5492;DHT22;2768;53.540;10.224;2023-06-10T08:17:07;19.70;40.60
5492;DHT22;2768;53.540;10.224;2023-06-10T08:23:00;19.90;38.90
5492;DHT22;2768;53.540;10.224;2023-06-10T08:28:55;20.00;33.20
5492;DHT22;2768;53.540;10.224;2023-06-10T08:34:48;20.20;36.30
5492;DHT22;2768;53.540;10.224;2023-06-10T08:40:42;20.30;35.90
5492;DHT22;2768;53.540;10.224;2023-06-10T08:46:37;20.40;33.00
5492;DHT22;2768;53.540;10.224;2023-06-10T08:52:36;20.60;31.30
5492;DHT22;2768;53.540;10.224;2023-06-10T08:58:29;20.60;25.60
5492;DHT22;2768;53.540;10.224;2023-06-10T09:04:27;20.70;25.50
5492;DHT22;2768;53.540;10.224;2023-06-10T09:10:20;21.00;28.50
5492;DHT22;2768;53.540;10.224;2023-06-10T09:16:13;21.20;20.90
5492;DHT22;2768;53.540;10.224;2023-06-10T09:22:10;21.40;20.20
5492;DHT22;2768;53.540;10.224;2023-06-10T09:28:04;21.50;20.40
5492;DHT22;2768;53.540;10.224;2023-06-10T09:34:06;21.70;15.10
5492;DHT22;2768;53.540;10.224;2023-06-10T09:40:05;21.90;19.90
5492;DHT22;2768;53.540;10.224;2023-06-10T09:46:00;22.00;11.90
5492;DHT22;2768;53.540;10.224;2023-06-10T09:51:54;22.30;15.60
5492;DHT22;2768;53.540;10.224;2023-06-10T09:57:53;22.40;7.60
5492;DHT22;2768;53.540;10.224;2023-06-10T10:03:49;22.50;8.10
5492;DHT22;2768;53.540;10.224;2023-06-10T10:09:42;22.60;7.40
5492;DHT22;2768;53.540;10.224;2023-06-10T10:15:37;22.90;7.60
5492;DHT22;2768;53.540;10.224;2023-06-10T10:21:38;23.10;3.20
5492;DHT22;2768;53.540;10.224;2023-06-10T10:27:35;23.50;1.00
5492;DHT22;2768;53.540;10.224;2023-06-10T10:33:36;23.50;1.00
5492;DHT22;2768;53.540;10.224;2023-06-10T10:39:34;23.50;1.00
5492;DHT22;2768;53.540;10.224;2023-06-10T10:45:28;23.80;1.00
5492;DHT22;2768;53.540;10.224;2023-06-10T10:51:24;23.90;1.00
5492;DHT22;2768;53.540;10.224;2023-06-10T10:57:18;24.10;1.00
5492;DHT22;2768;53.540;10.224;2023-06-10T11:03:14;24.10;1.00
5492;DHT22;2768;53.540;10.224;2023-06-10T11:09:28;24.10;1.00
5492;DHT22;2768;53.540;10.224;2023-06-10T11:15:24;24.50;1.00
5492;DHT22;2768;53.540;10.224;2023-06-10T11:21:19;24.70;1.00
5492;DHT22;2768;53.540;10.224;2023-06-10T11:27:18;24.70;1.00
5492;DHT22;2768;53.540;10.224;2023-06-10T11:33:16;25.00;1.00
5492;DHT22;2768;53.540;10.224;2023-06-10T11:39:10;25.00;1.00
5492;DHT22;2768;53.540;10.224;2023-06-10T11:45:06;25.10;1.00
5492;DHT22;2768;53.540;10.224;2023-06-10T11:51:05;25.60;1.00
5492;DHT22;2768;53.540;10.224;2023-06-10T11:56:59;25.80;1.00
5492;DHT22;2768;53.540;10.224;2023-06-10T12:02:57;25.70;1.00
5492;DHT22;2768;53.540;10.224;2023-06-10T12:08:50;25.90;1.00
5492;DHT22;2768;53.540;10.224;2023-06-10T12:14:51;26.10;1.00
5492;DHT22;2768;53.540;10.224;2023-06-10T12:20:47;26.10;1.00
5492;DHT22;2768;53.540;10.224;2023-06-10T12:26:42;26.30;1.00
5492;DHT22;2768;53.540;10.224;2023-06-10T12:32:38;26.40;1.00
5492;DHT22;2768;53.540;10.224;2023-06-10T12:38:34;26.40;1.00
5492;DHT22;2768;53.540;10.224;2023-06-10T12:44:32;26.70;1.00
5492;DHT22;2768;53.540;10.224;2023-06-10T12:50:26;26.60;1.00
5492;DHT22;2768;53.540;10.224;2023-06-10T12:56:21;26.80;1.00
5492;DHT22;2768;53.540;10.224;2023-06-10T13:02:16;26.80;1.00
5492;DHT22;2768;53.540;10.224;2023-06-10T13:08:09;27.10;1.00
5492;DHT22;2768;53.540;10.224;2023-06-10T13:14:04;27.20;1.00
5492;DHT22;2768;53.540;10.224;2023-06-10T13:19:57;27.40;1.00
5492;DHT22;2768;53.540;10.224;2023-06-10T13:25:51;27.40;1.00
5492;DHT22;2768;53.540;10.224;2023-06-10T13:31:46;27.70;1.00
5492;DHT22;2768;53.540;10.224;2023-06-10T13:37:39;27.90;1.00
5492;DHT22;2768;53.540;10.224;2023-06-10T13:43:33;28.10;1.00
5492;DHT22;2768;53.540;10.224;2023-06-10T13:49:28;28.20;1.00
5492;DHT22;2768;53.540;10.224;2023-06-10T13:55:21;28.20;1.00
5492;DHT22;2768;53.540;10.224;2023-06-10T14:01:14;28.40;1.00
5492;DHT22;2768;53.540;10.224;2023-06-10T14:07:08;28.70;1.00
5492;DHT22;2768;53.540;10.224;2023-06-10T14:13:02;29.00;1.00
5492;DHT22;2768;53.540;10.224;2023-06-10T14:18:55;29.50;1.00
5492;DHT22;2768;53.540;10.224;2023-06-10T14:24:51;30.60;1.00
5492;DHT22;2768;53.540;10.224;2023-06-10T14:30:45;30.30;1.00
5492;DHT22;2768;53.540;10.224;2023-06-10T14:36:38;28.70;1.00
5492;DHT22;2768;53.540;10.224;2023-06-10T14:42:33;28.40;1.00
5492;DHT22;2768;53.540;10.224;2023-06-10T14:48:27;28.30;1.00
5492;DHT22;2768;53.540;10.224;2023-06-10T14:54:20;28.10;1.00
5492;DHT22;2768;53.540;10.224;2023-06-10T15:00:15;28.10;1.00
5492;DHT22;2768;53.540;10.224;2023-06-10T15:06:11;27.90;1.00
5492;DHT22;2768;53.540;10.224;2023-06-10T15:12:05;27.70;1.00
5492;DHT22;2768;53.540;10.224;2023-06-10T15:18:00;27.60;1.00
5492;DHT22;2768;53.540;10.224;2023-06-10T15:23:54;27.60;1.00
5492;DHT22;2768;53.540;10.224;2023-06-10T15:29:48;27.60;1.00
5492;DHT22;2768;53.540;10.224;2023-06-10T15:35:42;27.50;1.00
5492;DHT22;2768;53.540;10.224;2023-06-10T15:41:36;27.10;1.00
5492;DHT22;2768;53.540;10.224;2023-06-10T15:47:29;27.10;1.00
5492;DHT22;2768;53.540;10.224;2023-06-10T15:53:24;27.00;1.00
5492;DHT22;2768;53.540;10.224;2023-06-10T15:59:17;26.70;1.00
5492;DHT22;2768;53.540;10.224;2023-06-10T16:05:11;26.60;1.00
5492;DHT22;2768;53.540;10.224;2023-06-10T16:11:05;26.60;1.00
5492;DHT22;2768;53.540;10.224;2023-06-10T16:16:59;26.50;1.00
5492;DHT22;2768;53.540;10.224;2023-06-10T16:22:52;26.40;1.00
5492;DHT22;2768;53.540;10.224;2023-06-10T16:28:47;26.30;1.00
5492;DHT22;2768;53.540;10.224;2023-06-10T16:34:40;26.20;1.00
5492;DHT22;2768;53.540;10.224;2023-06-10T16:40:34;26.10;1.00
5492;DHT22;2768;53.540;10.224;2023-06-10T16:46:29;26.10;1.00
5492;DHT22;2768;53.540;10.224;2023-06-10T16:52:22;25.90;1.00
5492;DHT22;2768;53.540;10.224;2023-06-10T16:58:15;25.70;1.00
5492;DHT22;2768;53.540;10.224;2023-06-10T17:04:10;25.70;1.00
5492;DHT22;2768;53.540;10.224;2023-06-10T17:10:05;25.60;1.00
5492;DHT22;2768;53.540;10.224;2023-06-10T17:15:58;25.50;1.00
5492;DHT22;2768;53.540;10.224;2023-06-10T17:21:53;25.30;1.00
5492;DHT22;2768;53.540;10.224;2023-06-10T17:27:48;25.20;1.00
5492;DHT22;2768;53.540;10.224;2023-06-10T17:33:41;25.10;1.00
5492;DHT22;2768;53.540;10.224;2023-06-10T17:39:36;25.00;1.00
5492;DHT22;2768;53.540;10.224;2023-06-10T17:45:29;25.00;1.00
5492;DHT22;2768;53.540;10.224;2023-06-10T17:51:22;24.80;1.00
5492;DHT22;2768;53.540;10.224;2023-06-10T17:57:17;24.80;1.00
5492;DHT22;2768;53.540;10.224;2023-06-10T18:03:11;24.70;1.00
5492;DHT22;2768;53.540;10.224;2023-06-10T18:09:04;24.50;1.00
5492;DHT22;2768;53.540;10.224;2023-06-10T18:15:04;24.40;1.00
5492;DHT22;2768;53.540;10.224;2023-06-10T18:20:58;24.40;1.00
5492;DHT22;2768;53.540;10.224;2023-06-10T18:26:54;24.30;1.00
5492;DHT22;2768;53.540;10.224;2023-06-10T18:32:48;24.30;1.00
5492;DHT22;2768;53.540;10.224;2023-06-10T18:38:41;24.10;1.00
5492;DHT22;2768;53.540;10.224;2023-06-10T18:44:35;24.00;1.00
5492;DHT22;2768;53.540;10.224;2023-06-10T18:50:29;24.00;1.00
5492;DHT22;2768;53.540;10.224;2023-06-10T18:56:23;23.90;1.00
5492;DHT22;2768;53.540;10.224;2023-06-10T19:02:17;23.90;1.00
5492;DHT22;2768;53.540;10.224;2023-06-10T19:08:11;23.90;1.00
5492;DHT22;2768;53.540;10.224;2023-06-10T19:14:05;23.90;1.00
5492;DHT22;2768;53.540;10.224;2023-06-10T19:19:59;23.80;1.00
5492;DHT22;2768;53.540;10.224;2023-06-10T19:25:53;23.80;1.00
5492;DHT22;2768;53.540;10.224;2023-06-10T19:31:46;23.70;1.00
5492;DHT22;2768;53.540;10.224;2023-06-10T19:37:40;23.70;1.00
5492;DHT22;2768;53.540;10.224;2023-06-10T19:43:34;23.70;1.00
5492;DHT22;2768;53.540;10.224;2023-06-10T19:49:29;23.60;1.00
5492;DHT22;2768;53.540;10.224;2023-06-10T19:55:22;23.50;1.00
5492;DHT22;2768;53.540;10.224;2023-06-10T20:01:17;23.40;1.00
5492;DHT22;2768;53.540;10.224;2023-06-10T20:07:11;23.40;1.00
5492;DHT22;2768;53.540;10.224;2023-06-10T20:13:04;23.30;1.00
5492;DHT22;2768;53.540;10.224;2023-06-10T20:18:59;23.20;1.00
5492;DHT22;2768;53.540;10.224;2023-06-10T20:24:55;23.10;1.00
5492;DHT22;2768;53.540;10.224;2023-06-10T20:30:48;23.00;1.00
5492;DHT22;2768;53.540;10.224;2023-06-10T20:36:43;22.90;1.00
5492;DHT22;2768;53.540;10.224;2023-06-10T20:42:37;22.90;1.00
5492;DHT22;2768;53.540;10.224;2023-06-10T20:48:30;22.80;1.00
5492;DHT22;2768;53.540;10.224;2023-06-10T20:54:25;22.70;1.00
5492;DHT22;2768;53.540;10.224;2023-06-10T21:00:19;22.50;1.00
5492;DHT22;2768;53.540;10.224;2023-06-10T21:06:12;22.50;1.00
5492;DHT22;2768;53.540;10.224;2023-06-10T21:12:08;22.40;1.00
5492;DHT22;2768;53.540;10.224;2023-06-10T21:18:02;22.40;1.00
5492;DHT22;2768;53.540;10.224;2023-06-10T21:23:55;22.30;1.00
5492;DHT22;2768;53.540;10.224;2023-06-10T21:29:50;22.10;1.00
5492;DHT22;2768;53.540;10.224;2023-06-10T21:35:44;22.10;1.00
5492;DHT22;2768;53.540;10.224;2023-06-10T21:41:38;22.00;1.00
5492;DHT22;2768;53.540;10.224;2023-06-10T21:47:33;21.90;1.00
5492;DHT22;2768;53.540;10.224;2023-06-10T21:53:26;21.70;1.00
5492;DHT22;2768;53.540;10.224;2023-06-10T21:59:21;21.70;1.00
5492;DHT22;2768;53.540;10.224;2023-06-10T22:05:16;21.70;1.00
5492;DHT22;2768;53.540;10.224;2023-06-10T22:11:09;21.60;1.00
5492;DHT22;2768;53.540;10.224;2023-06-10T22:17:03;21.40;1.00
5492;DHT22;2768;53.540;10.224;2023-06-10T22:22:58;21.30;1.00
5492;DHT22;2768;53.540;10.224;2023-06-10T22:28:51;21.30;1.00
5492;DHT22;2768;53.540;10.224;2023-06-10T22:34:45;21.30;1.00
5492;DHT22;2768;53.540;10.224;2023-06-10T22:40:40;21.00;1.00
5492;DHT22;2768;53.540;10.224;2023-06-10T22:46:34;21.10;1.00
5492;DHT22;2768;53.540;10.224;2023-06-10T22:52:27;20.80;1.00
5492;DHT22;2768;53.540;10.224;2023-06-10T22:58:22;20.90;1.00
5492;DHT22;2768;53.540;10.224;2023-06-10T23:04:15;20.80;1.00
5492;DHT22;2768;53.540;10.224;2023-06-10T23:10:09;20.70;1.00
5492;DHT22;2768;53.540;10.224;2023-06-10T23:16:04;20.60;1.00
5492;DHT22;2768;53.540;10.224;2023-06-10T23:21:58;20.50;1.00
5492;DHT22;2768;53.540;10.224;2023-06-10T23:27:52;20.50;1.00
5492;DHT22;2768;53.540;10.224;2023-06-10T23:33:47;20.30;1.00
5492;DHT22;2768;53.540;10.224;2023-06-10T23:39:41;20.10;1.00
5492;DHT22;2768;53.540;10.224;2023-06-10T23:45:36;20.00;1.00
5492;DHT22;2768;53.540;10.224;2023-06-10T23:51:31;19.90;1.00
5492;DHT22;2768;53.540;10.224;2023-06-10T23:57:25;19.90;1.00
